Terminal Aerodrome Forecast
Issued by NWS Wichita, KS

Home | Current Version | Previous Version | Graphics & Text | Print | Product List | Glossary On
Versions: 1 2 3 4 5 6 7 8 9 10 11 12 13 14 15 16 17
000
FTUS43 KICT 171100
TAFICT
TAF
KICT 171129Z 1712/1812 20006KT 5SM BR SCT010
      TEMPO 1712/1714 2SM BR BKN006
     FM171500 23010KT P6SM SCT040
     FM172000 33007KT P6SM SCT035
     FM180100 09009KT P6SM SCT030=

USA.gov is the U.S. government's official web portal to all federal, state and local government web resources and services.